createdAt,value
2019-04-05T00:05:45.757Z,75.79
2019-04-05T00:09:50.980Z,76.08
2019-04-05T00:13:56.169Z,76.28
2019-04-05T00:18:01.376Z,76.62
2019-04-05T00:22:06.468Z,76.54
2019-04-05T00:26:11.666Z,76.82
2019-04-05T00:30:16.974Z,77.22
2019-04-05T00:34:22.169Z,77.00
2019-04-05T00:38:27.789Z,77.15
2019-04-05T00:42:32.976Z,77.80
2019-04-05T00:46:38.496Z,77.66
2019-04-05T00:50:43.923Z,77.97
2019-04-05T00:54:49.061Z,77.29
2019-04-05T00:58:54.281Z,78.11
2019-04-05T01:02:59.460Z,78.67
2019-04-05T01:07:04.639Z,78.86
2019-04-05T01:11:09.875Z,78.86
2019-04-05T01:15:54.498Z,78.43
2019-04-05T01:25:08.548Z,79.17
2019-04-05T01:29:53.126Z,79.16
2019-04-05T01:33:58.353Z,78.86
2019-04-05T01:38:03.978Z,79.50
2019-04-05T01:42:23.831Z,78.47
2019-04-05T01:47:09.095Z,78.10
2019-04-05T01:51:30.137Z,78.49
2019-04-05T01:55:36.963Z,78.54
2019-04-05T02:03:59.275Z,79.96
2019-04-05T02:08:04.576Z,80.18
2019-04-05T02:12:10.160Z,80.24
2019-04-05T02:16:15.353Z,80.36
2019-04-05T02:20:20.523Z,80.54
2019-04-05T02:24:25.723Z,80.45
2019-04-05T02:28:30.994Z,80.55
2019-04-05T02:32:36.147Z,80.62
2019-04-05T02:36:41.353Z,80.51
2019-04-05T02:41:26.061Z,80.44
2019-04-05T02:50:20.351Z,80.63
2019-04-05T02:59:22.488Z,81.10
2019-04-05T03:03:27.702Z,80.94
2019-04-05T03:07:34.527Z,81.18
2019-04-05T03:12:00.252Z,81.40
2019-04-05T03:20:53.959Z,81.85
2019-04-05T03:29:36.510Z,82.04
2019-04-05T03:38:00.196Z,82.67
2019-04-05T03:42:05.337Z,82.66
2019-04-05T03:55:25.800Z,82.15
2019-04-05T03:59:31.733Z,82.08
2019-04-05T04:03:36.881Z,82.16
2019-04-05T04:07:42.155Z,81.68
2019-04-05T04:11:47.508Z,82.03
2019-04-05T04:25:07.057Z,82.88
2019-04-05T04:29:12.226Z,83.79
2019-04-05T04:38:20.298Z,81.54
2019-04-05T04:42:36.524Z,82.11
2019-04-05T04:47:04.480Z,79.96
2019-04-05T04:51:30.503Z,80.51
2019-04-05T04:55:36.433Z,79.82
2019-04-05T04:59:41.995Z,79.33
2019-04-05T05:03:47.787Z,80.86
2019-04-05T05:07:53.218Z,80.33
2019-04-05T05:11:59.883Z,78.70
2019-04-05T05:20:53.585Z,78.25
2019-04-05T05:24:59.241Z,77.73
2019-04-05T05:29:04.952Z,77.37
2019-04-05T05:33:10.207Z,77.81
2019-04-05T05:37:15.599Z,77.89
2019-04-05T05:41:20.763Z,80.00
2019-04-05T05:45:26.062Z,79.55
2019-04-05T05:49:31.294Z,77.87
2019-04-05T05:53:36.525Z,77.64
2019-04-05T05:57:42.047Z,78.03
2019-04-05T06:01:47.160Z,78.45
2019-04-05T06:06:03.630Z,79.62
2019-04-05T06:10:18.835Z,78.21
2019-04-05T06:14:24.080Z,77.83
2019-04-05T06:18:29.338Z,78.62
2019-04-05T06:27:04.683Z,77.88
2019-04-05T06:31:09.932Z,77.80
2019-04-05T06:35:15.119Z,78.76
2019-04-05T06:39:20.838Z,77.31
2019-04-05T06:43:32.598Z,78.45
2019-04-05T06:47:37.812Z,78.25
2019-04-05T06:51:42.964Z,77.90
2019-04-05T06:55:48.370Z,77.03
2019-04-05T06:59:53.889Z,76.54
2019-04-05T07:03:59.012Z,75.92
2019-04-05T07:08:04.183Z,74.99
2019-04-05T07:12:09.420Z,73.99
2019-04-05T07:16:14.657Z,73.51
2019-04-05T07:20:19.957Z,73.38
2019-04-05T07:24:25.378Z,73.03
2019-04-05T07:28:30.644Z,72.75
2019-04-05T07:32:35.865Z,71.93
2019-04-05T07:36:41.093Z,71.62
2019-04-05T07:40:46.316Z,71.34
2019-04-05T07:44:51.613Z,71.03
2019-04-05T07:48:56.784Z,69.91
2019-04-05T07:53:01.993Z,68.14
2019-04-05T07:57:07.572Z,68.12
2019-04-05T08:01:33.217Z,68.00
2019-04-05T08:05:38.465Z,67.74
2019-04-05T08:09:45.396Z,65.56
2019-04-05T08:18:27.497Z,65.42
2019-04-05T08:22:32.756Z,65.92
2019-04-05T08:26:38.001Z,64.89
2019-04-05T08:31:02.161Z,63.27
2019-04-05T08:35:07.347Z,64.77
2019-04-05T08:39:12.661Z,64.31
2019-04-05T08:43:17.765Z,61.26
2019-04-05T08:52:20.380Z,60.31
2019-04-05T08:56:26.043Z,60.31
2019-04-05T09:00:31.306Z,58.65
2019-04-05T09:04:37.203Z,57.78
2019-04-05T09:08:42.510Z,56.10
2019-04-05T09:12:47.663Z,57.19
2019-04-05T09:16:52.929Z,55.96
2019-04-05T09:20:58.027Z,57.52
2019-04-05T09:25:03.124Z,56.93
2019-04-05T09:29:09.451Z,58.06
2019-04-05T09:33:21.197Z,58.96
2019-04-05T09:37:26.346Z,56.51
2019-04-05T09:41:31.565Z,56.83
2019-04-05T09:45:36.848Z,58.44
2019-04-05T09:49:42.097Z,58.27
2019-04-05T09:53:47.352Z,57.90
2019-04-05T09:57:52.515Z,58.11
2019-04-05T10:01:57.708Z,57.99
2019-04-05T10:06:02.924Z,57.86
2019-04-05T10:10:19.143Z,57.31
2019-04-05T10:14:24.371Z,56.68
2019-04-05T10:18:29.634Z,55.93
2019-04-05T10:22:34.759Z,56.72
2019-04-05T10:26:39.956Z,57.49
2019-04-05T10:30:45.310Z,56.35
2019-04-05T10:34:50.451Z,58.21
2019-04-05T10:38:55.604Z,58.27
2019-04-05T10:43:00.798Z,59.28
2019-04-05T10:47:06.013Z,59.80
2019-04-05T10:51:11.170Z,60.50
2019-04-05T10:55:16.296Z,60.75
2019-04-05T10:59:21.403Z,60.85
2019-04-05T11:03:26.705Z,58.90
2019-04-05T11:07:34.859Z,57.70
2019-04-05T11:11:44.833Z,58.59
2019-04-05T11:15:50.186Z,57.56
2019-04-05T11:19:55.434Z,57.73
2019-04-05T11:24:00.693Z,56.32
2019-04-05T11:28:05.912Z,57.07
2019-04-05T11:32:11.083Z,56.17
2019-04-05T11:36:16.335Z,56.68
2019-04-05T11:40:24.097Z,54.85
2019-04-05T11:44:35.127Z,55.83
2019-04-05T11:48:41.333Z,56.43
2019-04-05T11:53:06.619Z,53.61
2019-04-05T11:57:11.857Z,52.88
2019-04-05T12:01:35.969Z,53.88
2019-04-05T12:05:41.137Z,51.72
2019-04-05T12:09:48.046Z,54.23
2019-04-05T12:13:58.334Z,55.79
2019-04-05T12:18:04.629Z,54.52
2019-04-05T12:22:29.541Z,55.52
2019-04-05T12:26:35.219Z,55.41
2019-04-05T12:30:41.196Z,56.16
2019-04-05T12:34:46.336Z,56.48
2019-04-05T12:38:54.075Z,56.60
2019-04-05T12:43:03.705Z,55.72
2019-04-05T12:47:08.814Z,56.07
2019-04-05T12:51:15.544Z,55.41
2019-04-05T12:55:26.440Z,55.70
2019-04-05T12:59:31.827Z,54.81
2019-04-05T13:03:38.468Z,55.14
2019-04-05T13:08:04.312Z,56.20
2019-04-05T13:12:09.431Z,55.66
2019-04-05T13:16:14.630Z,57.09
2019-04-05T13:20:19.932Z,55.67
2019-04-05T13:24:25.104Z,56.75
2019-04-05T13:28:30.319Z,57.21
2019-04-05T13:32:35.570Z,58.42
2019-04-05T13:36:40.689Z,57.93
2019-04-05T13:40:45.901Z,58.17
2019-04-05T13:44:51.045Z,58.16
2019-04-05T13:48:57.945Z,58.32
2019-04-05T13:53:03.085Z,57.88
2019-04-05T13:57:10.516Z,58.55
2019-04-05T14:02:05.543Z,57.58
2019-04-05T14:06:10.604Z,58.14
2019-04-05T14:10:20.443Z,58.38
2019-04-05T14:14:28.417Z,57.95
2019-04-05T14:18:39.337Z,58.02
2019-04-05T14:22:44.671Z,57.79
2019-04-05T14:26:50.303Z,58.32
2019-04-05T14:30:55.643Z,58.65
2019-04-05T14:35:02.664Z,58.36
2019-04-05T14:39:22.954Z,59.07
2019-04-05T14:43:28.642Z,59.50
2019-04-05T14:47:34.666Z,59.75
2019-04-05T14:51:52.226Z,59.59
2019-04-05T14:56:05.998Z,59.51
2019-04-05T15:04:49.495Z,60.00
2019-04-05T15:09:14.824Z,60.27
2019-04-05T15:13:20.120Z,61.33
2019-04-05T15:17:25.347Z,59.52
2019-04-05T15:21:30.615Z,59.95
2019-04-05T15:25:36.028Z,60.34
2019-04-05T15:29:41.203Z,59.67
2019-04-05T15:33:46.273Z,60.18
2019-04-05T15:37:51.425Z,60.92
2019-04-05T15:41:56.581Z,60.91
2019-04-05T15:46:01.875Z,61.00
2019-04-05T15:50:10.044Z,61.22
2019-04-05T15:54:15.226Z,61.09
2019-04-05T15:58:20.404Z,61.07
2019-04-05T16:02:25.681Z,61.07
2019-04-05T16:06:30.844Z,61.27
2019-04-05T16:10:36.021Z,61.46
2019-04-05T16:14:41.157Z,61.54
2019-04-05T16:18:46.334Z,62.31
2019-04-05T16:22:51.508Z,62.64
2019-04-05T16:26:56.781Z,63.12
2019-04-05T16:31:01.971Z,62.93
2019-04-05T16:35:07.183Z,63.16
2019-04-05T16:39:16.775Z,63.46
2019-04-05T16:43:22.287Z,63.75
2019-04-05T16:47:27.473Z,64.12
2019-04-05T16:51:34.205Z,64.29
2019-04-05T16:55:42.061Z,64.42
2019-04-05T16:59:47.254Z,64.77
2019-04-05T17:03:53.468Z,65.16
2019-04-05T17:07:58.925Z,65.48
2019-04-05T17:12:04.250Z,65.57
2019-04-05T17:16:09.643Z,65.79
2019-04-05T17:20:14.897Z,65.96
2019-04-05T17:24:20.083Z,66.20
2019-04-05T17:28:25.246Z,66.32
2019-04-05T17:32:31.653Z,66.91
2019-04-05T17:36:37.331Z,67.10
2019-04-05T17:40:42.613Z,67.50
2019-04-05T17:44:47.796Z,67.60
2019-04-05T17:48:53.645Z,67.88
2019-04-05T17:53:11.556Z,68.10
2019-04-05T17:57:07.417Z,68.09
2019-04-05T18:01:12.797Z,68.22
2019-04-05T18:05:18.422Z,68.19
2019-04-05T18:10:08.881Z,68.19
2019-04-05T18:14:13.986Z,68.39
2019-04-05T18:23:25.014Z,68.72
2019-04-05T18:27:24.302Z,69.10
2019-04-05T18:31:29.415Z,69.12
2019-04-05T18:35:34.598Z,69.52
2019-04-05T18:39:39.758Z,69.53
2019-04-05T18:43:44.924Z,69.81
2019-04-05T18:47:50.099Z,70.04
2019-04-05T18:51:55.345Z,70.15
2019-04-05T18:56:00.514Z,70.29
2019-04-05T19:00:05.892Z,70.55
2019-04-05T19:04:14.317Z,70.64
2019-04-05T19:08:19.465Z,70.85
2019-04-05T19:12:24.960Z,70.85
2019-04-05T19:16:33.392Z,71.13
2019-04-05T19:20:38.585Z,71.12
2019-04-05T19:25:08.334Z,71.43
2019-04-05T19:29:13.448Z,71.57
2019-04-05T19:49:47.339Z,72.39
2019-04-05T19:54:01.049Z,72.54
2019-04-05T19:58:01.041Z,72.58
2019-04-05T20:02:06.193Z,72.76
2019-04-05T20:06:11.342Z,73.15
2019-04-05T20:10:16.631Z,73.15
2019-04-05T20:14:21.737Z,73.29
2019-04-05T20:18:27.007Z,73.29
2019-04-05T20:22:32.281Z,73.51
2019-04-05T20:26:38.001Z,73.48
2019-04-05T20:30:43.323Z,73.61
2019-04-05T20:34:48.491Z,73.66
2019-04-05T20:38:53.681Z,73.71
2019-04-05T20:43:01.291Z,73.79
2019-04-05T20:47:07.732Z,73.97
2019-04-05T20:51:12.969Z,73.97
2019-04-05T20:55:18.301Z,74.02
2019-04-05T20:59:24.684Z,73.99
2019-04-05T21:03:31.281Z,73.92
2019-04-05T21:07:36.753Z,73.98
2019-04-05T21:11:41.925Z,73.89
2019-04-05T21:15:47.095Z,73.89
2019-04-05T21:19:52.582Z,73.79
2019-04-05T21:23:58.064Z,73.87
2019-04-05T21:28:04.257Z,74.13
2019-04-05T21:32:09.366Z,74.24
2019-04-05T21:36:14.646Z,74.35
2019-04-05T21:40:19.970Z,74.32
2019-04-05T21:44:25.181Z,74.25
2019-04-05T21:48:30.685Z,74.54
2019-04-05T21:52:36.663Z,74.85
2019-04-05T21:56:41.838Z,75.16
2019-04-05T22:00:52.487Z,75.12
2019-04-05T22:05:01.237Z,75.34
2019-04-05T22:09:09.820Z,75.37
2019-04-05T22:13:15.362Z,75.56
2019-04-05T22:17:20.592Z,75.57
2019-04-05T22:21:25.730Z,75.38
2019-04-05T22:25:31.877Z,75.38
2019-04-05T22:29:37.049Z,75.70
2019-04-05T22:33:45.394Z,75.84
2019-04-05T22:37:50.956Z,75.90
2019-04-05T22:41:56.304Z,75.87
2019-04-05T22:46:01.764Z,75.78
2019-04-05T22:50:08.862Z,75.60
2019-04-05T22:54:14.149Z,75.89
2019-04-05T22:58:19.363Z,76.21
2019-04-05T23:02:24.545Z,76.38
2019-04-05T23:06:30.283Z,76.58
2019-04-05T23:10:35.521Z,76.73
2019-04-05T23:14:41.012Z,77.07
2019-04-05T23:18:46.154Z,77.17
2019-04-05T23:22:51.379Z,77.17
2019-04-05T23:26:56.572Z,77.17
2019-04-05T23:31:52.100Z,77.17
2019-04-05T23:35:57.440Z,77.41
2019-04-05T23:40:02.707Z,77.65
2019-04-05T23:44:08.421Z,77.53
2019-04-05T23:48:14.077Z,77.69
2019-04-05T23:52:19.583Z,77.82
2019-04-05T23:56:25.929Z,77.98
